Time;durP1;ratioP1;P1;durP2;ratioP2;P2;SDS_P1;SDS_P2;PMS_P1;PMS_P2;Temp;Humidity;BMP_temperature;BMP_pressure;BME280_temperature;BME280_humidity;BME280_pressure;Samples;Min_cycle;Max_cycle;Signal;HPM_P1;HPM_P2
2021/12/16 00:08:39;;;;;;;19.90;6.50;;;7.30;99.90;;;;;;6183661;23;20078;-87
2021/12/16 00:30:07;;;;;;;0.20;0.20;;;7.20;99.90;;;;;;6182754;22;20078;-86
2021/12/16 00:33:10;;;;;;;0.82;0.82;;;7.20;99.90;;;;;;6182402;23;20044;-86
2021/12/16 00:35:34;;;;;;;2.15;1.05;;;7.20;99.90;;;;;;6182665;22;20032;-87
2021/12/16 00:37:59;;;;;;;1.20;0.50;;;7.20;99.90;;;;;;6159522;23;20009;-87
2021/12/16 00:40:25;;;;;;;4.65;1.45;;;7.60;99.90;;;;;;6159842;23;20093;-86
2021/12/16 00:42:55;;;;;;;1.65;1.48;;;7.20;99.90;;;;;;6184694;22;20453;-86
2021/12/16 00:56:00;;;;;;;2.30;1.30;;;7.10;99.90;;;;;;6184483;22;20091;-87
2021/12/16 00:58:39;;;;;;;3.40;3.13;;;7.10;99.90;;;;;;6184174;22;20338;-86
2021/12/16 01:01:31;;;;;;;3.25;1.02;;;7.10;99.90;;;;;;6159765;23;20009;-86
2021/12/16 01:06:56;;;;;;;1.92;1.52;;;7.00;99.90;;;;;;6184090;22;20020;-87
2021/12/16 01:34:45;;;;;;;8.52;3.30;;;6.80;99.90;;;;;;6184337;22;20027;-87
2021/12/16 01:45:25;;;;;;;3.55;1.85;;;6.70;99.90;;;;;;6184342;23;20327;-86
2021/12/16 01:45:42;;;;;;;0.40;0.40;;;6.70;99.90;;;;;;6184024;23;20032;-86
2021/12/16 01:50:57;;;;;;;0.55;0.52;;;6.80;99.90;;;;;;6184240;22;20415;-86
2021/12/16 01:56:22;;;;;;;1.88;1.08;;;6.90;99.90;;;;;;6184066;22;20016;-87
2021/12/16 01:58:50;;;;;;;0.35;0.35;;;6.90;99.90;;;;;;6159167;23;20049;-86
2021/12/16 02:01:29;;;;;;;5.72;2.40;;;6.90;99.90;;;;;;6184120;23;20020;-86
2021/12/16 02:04:00;;;;;;;0.88;0.80;;;6.90;99.90;;;;;;6159238;23;20331;-86
2021/12/16 02:09:06;;;;;;;0.50;0.50;;;6.90;99.90;;;;;;6184122;22;20354;-86
2021/12/16 02:11:51;;;;;;;2.90;2.45;;;6.90;99.90;;;;;;6159476;22;20465;-86
2021/12/16 02:33:13;;;;;;;2.50;1.73;;;7.00;99.90;;;;;;6183941;23;20017;-86
2021/12/16 02:35:46;;;;;;;5.15;2.80;;;7.10;99.90;;;;;;6159582;23;20405;-86
2021/12/16 02:38:15;;;;;;;5.95;2.90;;;7.10;99.90;;;;;;6183788;23;20023;-86
2021/12/16 02:40:43;;;;;;;1.95;1.48;;;7.10;99.90;;;;;;6159254;23;20480;-86
2021/12/16 02:48:29;;;;;;;2.72;1.80;;;7.10;99.90;;;;;;6183689;22;20028;-87
2021/12/16 02:50:59;;;;;;;1.40;1.17;;;7.10;99.90;;;;;;6159091;23;20061;-86
2021/12/16 02:53:25;;;;;;;2.47;1.30;;;7.10;99.90;;;;;;6134746;23;20005;-86
2021/12/16 02:55:52;;;;;;;2.05;1.25;;;7.10;99.90;;;;;;6160086;22;20040;-86
2021/12/16 02:58:18;;;;;;;0.52;0.52;;;7.10;99.90;;;;;;6159026;22;20008;-86
2021/12/16 03:00:48;;;;;;;8.57;2.35;;;7.10;99.90;;;;;;6159157;23;20065;-86
2021/12/16 03:03:14;;;;;;;7.13;4.25;;;7.20;99.90;;;;;;6159039;22;20012;-86
2021/12/16 03:05:40;;;;;;;3.47;1.92;;;7.20;99.90;;;;;;6159767;22;20051;-86
2021/12/16 03:08:06;;;;;;;2.83;2.15;;;7.20;99.90;;;;;;6159036;23;20012;-86
2021/12/16 03:11:01;;;;;;;5.65;2.88;;;7.20;99.90;;;;;;6159435;22;20114;-85
2021/12/16 03:13:29;;;;;;;1.95;1.38;;;7.30;99.90;;;;;;6183768;22;20020;-86
2021/12/16 03:16:17;;;;;;;6.32;1.80;;;7.20;99.90;;;;;;6159095;23;20009;-86
2021/12/16 03:21:24;;;;;;;7.60;3.58;;;7.20;99.90;;;;;;6183951;22;20487;-86
2021/12/16 03:29:27;;;;;;;4.35;2.38;;;7.30;99.90;;;;;;6183785;23;20017;-86
2021/12/16 03:32:17;;;;;;;3.45;2.15;;;7.30;99.90;;;;;;6183675;22;20017;-86
2021/12/16 03:37:19;;;;;;;0.85;0.75;;;7.30;99.90;;;;;;6183195;22;20024;-86
2021/12/16 03:39:59;;;;;;;5.82;3.50;;;7.30;99.90;;;;;;6183305;23;20027;-86
2021/12/16 03:42:30;;;;;;;3.65;2.03;;;7.40;99.90;;;;;;6183956;22;20017;-86
2021/12/16 03:45:05;;;;;;;2.38;1.52;;;7.40;99.90;;;;;;6158526;23;20217;-86
2021/12/16 03:47:31;;;;;;;;;;;7.40;99.90;;;;;;6159305;22;20017;-86
2021/12/16 03:49:56;;;;;;;1.02;0.65;;;7.40;99.90;;;;;;6158938;22;20326;-86
2021/12/16 03:52:23;;;;;;;2.58;1.75;;;7.40;99.90;;;;;;6159166;22;20016;-86
2021/12/16 03:54:53;;;;;;;4.03;2.55;;;7.40;99.90;;;;;;6183622;22;20044;-86
2021/12/16 03:57:21;;;;;;;4.28;3.05;;;7.50;99.90;;;;;;6158631;22;20016;-86
2021/12/16 03:59:48;;;;;;;3.78;2.83;;;7.50;99.90;;;;;;6158380;23;20016;-86
2021/12/16 04:02:21;;;;;;;6.57;2.28;;;7.50;99.90;;;;;;6158718;22;20601;-86
2021/12/16 04:04:51;;;;;;;1.95;1.38;;;7.60;99.90;;;;;;6158595;23;20472;-86
2021/12/16 04:07:20;;;;;;;3.42;1.17;;;7.50;99.90;;;;;;6158576;23;20013;-86
2021/12/16 04:09:47;;;;;;;2.22;1.67;;;7.60;99.90;;;;;;6158490;22;20035;-86
2021/12/16 04:12:19;;;;;;;3.03;2.75;;;7.60;99.90;;;;;;6183398;23;20027;-86
2021/12/16 04:14:45;;;;;;;0.70;0.55;;;7.60;99.90;;;;;;6158676;23;20012;-86
2021/12/16 04:17:13;;;;;;;8.00;2.63;;;7.60;99.90;;;;;;6158027;23;20016;-87
2021/12/16 04:19:39;;;;;;;4.68;1.58;;;7.60;99.90;;;;;;6158519;23;20020;-86
2021/12/16 04:22:11;;;;;;;4.10;2.15;;;7.70;99.90;;;;;;6158682;23;20008;-86
2021/12/16 04:24:38;;;;;;;1.08;0.47;;;7.60;99.90;;;;;;6183218;22;20059;-86
2021/12/16 04:27:07;;;;;;;0.65;0.60;;;7.70;99.90;;;;;;6158454;22;20016;-86
2021/12/16 04:29:33;;;;;;;0.63;0.63;;;7.60;99.90;;;;;;6158541;23;20219;-87
2021/12/16 04:32:00;;;;;;;11.48;3.80;;;7.60;99.90;;;;;;6159474;22;20020;-86
2021/12/16 04:34:26;;;;;;;2.90;1.27;;;7.70;99.90;;;;;;6183303;23;20021;-86
2021/12/16 04:36:52;;;;;;;1.40;1.05;;;7.70;99.90;;;;;;6158431;23;20021;-86
2021/12/16 04:39:30;;;;;;;0.63;0.63;;;7.70;99.90;;;;;;6158403;22;20020;-86
2021/12/16 04:41:56;;;;;;;1.75;1.10;;;7.70;99.90;;;;;;6158596;22;20017;-86
2021/12/16 04:44:24;;;;;;;2.47;1.35;;;7.70;99.90;;;;;;6183124;23;20466;-86
2021/12/16 04:46:50;;;;;;;2.30;1.55;;;7.70;99.90;;;;;;6182783;23;20087;-86
2021/12/16 04:49:16;;;;;;;1.48;1.38;;;7.70;99.90;;;;;;6159403;22;20047;-86
2021/12/16 04:51:45;;;;;;;1.15;1.02;;;7.70;99.90;;;;;;6159456;23;20144;-86
2021/12/16 04:54:13;;;;;;;3.17;1.80;;;7.70;99.90;;;;;;6159706;22;20024;-86
2021/12/16 04:56:39;;;;;;;2.70;1.50;;;7.70;99.90;;;;;;6159670;23;20016;-86
2021/12/16 04:59:10;;;;;;;2.10;1.67;;;7.70;99.90;;;;;;6159542;23;20088;-86
2021/12/16 05:01:38;;;;;;;2.42;1.42;;;7.70;99.90;;;;;;6159286;23;20012;-86
2021/12/16 05:04:04;;;;;;;3.30;2.10;;;7.70;99.90;;;;;;6159146;22;20059;-86
2021/12/16 05:06:30;;;;;;;2.25;1.38;;;7.70;99.90;;;;;;6159272;23;20012;-86
2021/12/16 05:08:56;;;;;;;1.05;0.85;;;7.70;99.90;;;;;;6160146;22;20031;-86
2021/12/16 05:11:22;;;;;;;1.55;1.00;;;7.70;99.90;;;;;;6184874;22;20019;-86
2021/12/16 05:13:49;;;;;;;2.58;1.27;;;7.70;99.90;;;;;;6159358;23;20068;-86
2021/12/16 05:16:15;;;;;;;0.30;0.30;;;7.70;99.90;;;;;;6159373;22;20024;-86
2021/12/16 05:18:43;;;;;;;0.70;0.70;;;7.70;99.90;;;;;;6184642;22;20016;-86
2021/12/16 05:21:15;;;;;;;0.50;0.50;;;7.70;99.90;;;;;;6184292;23;20058;-86
2021/12/16 05:26:25;;;;;;;1.52;1.15;;;7.70;99.90;;;;;;6183939;22;20017;-86
2021/12/16 05:28:58;;;;;;;0.60;0.60;;;7.70;99.90;;;;;;6159934;22;20016;-86
2021/12/16 05:31:26;;;;;;;0.98;0.82;;;7.70;99.90;;;;;;6159397;23;20008;-86
2021/12/16 05:33:53;;;;;;;13.15;1.10;;;7.70;99.90;;;;;;6160268;22;20069;-86
2021/12/16 05:36:19;;;;;;;0.30;0.30;;;7.70;99.90;;;;;;6184117;22;20016;-86
2021/12/16 05:38:46;;;;;;;0.57;0.57;;;7.70;99.90;;;;;;6159177;23;20013;-86
2021/12/16 05:41:15;;;;;;;0.98;0.90;;;7.70;99.90;;;;;;6184250;22;20081;-86
2021/12/16 05:43:41;;;;;;;0.20;0.20;;;7.70;99.90;;;;;;6184027;22;20021;-86
2021/12/16 05:46:08;;;;;;;0.50;0.50;;;7.70;99.90;;;;;;6159492;22;20017;-86
2021/12/16 05:48:37;;;;;;;0.45;0.45;;;7.60;99.90;;;;;;6159436;23;20012;-86
2021/12/16 05:51:09;;;;;;;1.75;1.13;;;7.60;99.90;;;;;;6159426;22;20017;-86
2021/12/16 05:53:36;;;;;;;0.20;0.20;;;7.60;99.90;;;;;;6159427;23;20016;-86
2021/12/16 05:56:02;;;;;;;0.82;0.70;;;7.50;99.90;;;;;;6159094;23;20021;-86
2021/12/16 05:58:29;;;;;;;0.57;0.50;;;7.70;99.90;;;;;;6158887;23;20016;-86
2021/12/16 06:01:00;;;;;;;0.68;0.68;;;7.60;99.90;;;;;;6159241;22;20070;-86
2021/12/16 06:03:28;;;;;;;0.50;0.50;;;7.50;99.90;;;;;;6183978;23;20012;-86
2021/12/16 06:05:54;;;;;;;2.13;0.95;;;7.40;99.90;;;;;;6183961;23;20016;-86
2021/12/16 06:08:20;;;;;;;0.15;0.15;;;7.40;99.90;;;;;;6159239;23;20345;-86
2021/12/16 06:11:15;;;;;;;0.43;0.43;;;7.40;99.90;;;;;;6159313;22;20409;-86
2021/12/16 06:14:12;;;;;;;0.40;0.40;;;7.40;99.90;;;;;;6159464;23;20491;-86
2021/12/16 06:27:40;;;;;;;0.60;0.60;;;7.30;99.90;;;;;;6183652;22;20019;-86
2021/12/16 06:30:13;;;;;;;0.30;0.30;;;7.40;99.90;;;;;;6159478;23;20023;-86
2021/12/16 06:32:39;;;;;;;0.75;0.57;;;7.30;99.90;;;;;;6159425;22;20019;-86
2021/12/16 06:35:07;;;;;;;1.50;1.08;;;7.30;99.90;;;;;;6159144;22;20027;-86
2021/12/16 06:37:33;;;;;;;0.20;0.20;;;7.30;99.90;;;;;;6183602;22;20027;-86
2021/12/16 06:39:58;;;;;;;0.90;0.88;;;7.30;99.90;;;;;;6183917;22;20095;-86
2021/12/16 06:42:25;;;;;;;0.22;0.22;;;7.30;99.90;;;;;;6159644;23;20061;-86
2021/12/16 06:44:56;;;;;;;0.43;0.43;;;7.30;99.90;;;;;;6158867;23;20024;-86
2021/12/16 06:47:31;;;;;;;0.70;0.65;;;7.30;99.90;;;;;;6158886;22;20017;-86
2021/12/16 06:49:57;;;;;;;0.15;0.15;;;7.30;99.90;;;;;;6159152;23;20326;-86
2021/12/16 06:52:31;;;;;;;0.28;0.28;;;7.30;99.90;;;;;;6158995;23;20021;-86
2021/12/16 06:55:11;;;;;;;0.57;0.57;;;7.30;99.90;;;;;;6159335;22;20016;-86
2021/12/16 06:57:44;;;;;;;0.95;0.82;;;7.20;99.90;;;;;;6158779;23;20023;-86
2021/12/16 07:00:18;;;;;;;0.20;0.20;;;7.20;99.90;;;;;;6158817;23;20013;-86
2021/12/16 07:03:02;;;;;;;0.30;0.30;;;7.20;99.90;;;;;;6158925;23;20052;-86
2021/12/16 07:05:40;;;;;;;8.98;2.58;;;7.20;99.90;;;;;;6183713;22;20043;-86
2021/12/16 07:08:09;;;;;;;3.08;1.88;;;7.10;99.90;;;;;;6158949;22;20013;-86
2021/12/16 07:10:36;;;;;;;1.83;1.67;;;7.00;99.90;;;;;;6183859;22;20057;-86
2021/12/16 07:13:07;;;;;;;1.27;1.00;;;7.00;99.90;;;;;;6158356;22;20012;-86
2021/12/16 07:15:36;;;;;;;4.15;2.38;;;7.00;99.90;;;;;;6158918;23;20020;-86
2021/12/16 07:18:02;;;;;;;4.25;2.45;;;6.90;99.90;;;;;;6158744;22;20017;-86
2021/12/16 07:20:32;;;;;;;1.67;1.33;;;6.90;99.90;;;;;;6159125;22;20402;-86
2021/12/16 07:22:59;;;;;;;4.00;2.95;;;6.90;99.90;;;;;;6183670;23;20023;-86
2021/12/16 07:25:25;;;;;;;0.40;0.40;;;6.90;99.90;;;;;;6158761;23;20021;-86
2021/12/16 07:27:51;;;;;;;1.27;1.17;;;6.80;99.90;;;;;;6158715;23;20047;-86
2021/12/16 07:30:19;;;;;;;11.90;4.68;;;6.80;99.90;;;;;;6158652;23;20438;-86
2021/12/16 07:32:46;;;;;;;1.83;1.35;;;6.80;99.90;;;;;;6183611;22;20319;-86
2021/12/16 07:35:15;;;;;;;0.88;0.88;;;6.80;99.90;;;;;;6158623;23;20017;-86
2021/12/16 07:37:42;;;;;;;8.23;2.60;;;6.80;99.90;;;;;;6158613;23;20016;-86
2021/12/16 07:40:11;;;;;;;0.50;0.50;;;6.80;99.90;;;;;;6158805;22;20028;-86
2021/12/16 07:42:59;;;;;;;2.85;1.65;;;6.80;99.90;;;;;;6183673;23;20013;-86
2021/12/16 07:45:27;;;;;;;71.65;5.40;;;6.80;99.90;;;;;;6183317;23;20453;-86
2021/12/16 07:47:53;;;;;;;0.70;0.70;;;6.80;99.90;;;;;;6158621;22;20051;-86
2021/12/16 07:50:19;;;;;;;0.93;0.57;;;6.80;99.90;;;;;;6158604;23;20017;-86
2021/12/16 07:52:45;;;;;;;0.80;0.65;;;6.80;99.90;;;;;;6158745;22;20012;-86
2021/12/16 07:55:12;;;;;;;44.03;3.58;;;6.80;99.90;;;;;;6158882;22;20126;-86
2021/12/16 07:57:39;;;;;;;2.80;1.33;;;6.70;99.90;;;;;;6158287;23;20021;-86
2021/12/16 08:00:09;;;;;;;2.40;1.80;;;6.80;99.90;;;;;;6158812;22;20302;-86
2021/12/16 08:02:35;;;;;;;3.38;1.40;;;6.70;99.90;;;;;;6159116;22;20085;-86
2021/12/16 08:05:02;;;;;;;1.55;0.60;;;6.80;99.90;;;;;;6158361;23;20017;-86
2021/12/16 08:07:28;;;;;;;3.13;0.88;;;6.70;99.90;;;;;;6182989;23;20087;-86
2021/12/16 08:09:54;;;;;;;22.58;1.77;;;6.70;99.90;;;;;;6183211;23;20047;-86
2021/12/16 08:12:20;;;;;;;1.15;1.00;;;6.70;99.90;;;;;;6183498;23;20024;-86
2021/12/16 08:14:46;;;;;;;0.52;0.52;;;6.70;99.90;;;;;;6158876;22;20027;-85
2021/12/16 08:17:13;;;;;;;1.83;1.33;;;6.70;99.90;;;;;;6158079;23;20472;-86
2021/12/16 08:19:38;;;;;;;0.40;0.40;;;6.70;99.90;;;;;;6158119;23;20013;-86
2021/12/16 08:22:05;;;;;;;0.30;0.30;;;6.70;99.90;;;;;;6183189;23;20075;-86
2021/12/16 08:24:30;;;;;;;6.07;2.05;;;6.70;99.90;;;;;;6183966;22;20057;-86
2021/12/16 08:26:56;;;;;;;23.08;2.25;;;6.70;99.90;;;;;;6159540;23;20016;-86
2021/12/16 08:29:24;;;;;;;0.30;0.30;;;6.70;99.90;;;;;;6159692;23;20019;-86
2021/12/16 08:31:50;;;;;;;2.60;1.67;;;6.70;99.90;;;;;;6159486;23;20008;-85
2021/12/16 08:34:17;;;;;;;3.97;2.40;;;6.60;99.90;;;;;;6159508;22;20493;-86
2021/12/16 08:36:43;;;;;;;2.83;1.77;;;6.60;99.90;;;;;;6159224;23;20024;-86
2021/12/16 08:39:09;;;;;;;13.95;1.85;;;6.50;99.90;;;;;;6159213;22;20476;-85
2021/12/16 08:41:42;;;;;;;1.83;0.95;;;6.50;99.90;;;;;;6158786;23;20024;-85
2021/12/16 08:44:09;;;;;;;36.53;2.35;;;6.50;99.90;;;;;;6159040;22;20048;-86
2021/12/16 08:46:38;;;;;;;3.45;1.25;;;6.50;99.90;;;;;;6159967;22;20108;-86
2021/12/16 08:49:04;;;;;;;0.73;0.73;;;6.50;99.90;;;;;;6159374;22;20013;-86
2021/12/16 08:51:36;;;;;;;1.63;1.33;;;6.40;99.90;;;;;;6159702;22;20240;-86
2021/12/16 08:54:03;;;;;;;47.70;2.97;;;6.40;99.90;;;;;;6159807;23;20055;-85
2021/12/16 08:56:28;;;;;;;0.93;0.68;;;6.40;99.90;;;;;;6159172;23;20095;-86
2021/12/16 08:58:56;;;;;;;36.40;2.78;;;6.40;99.90;;;;;;6159400;23;20522;-86
2021/12/16 09:01:26;;;;;;;80.55;3.45;;;6.40;99.90;;;;;;6184530;22;20024;-86
2021/12/16 09:03:54;;;;;;;9.48;1.58;;;6.50;99.90;;;;;;6159507;22;20024;-85
2021/12/16 09:06:20;;;;;;;10.82;2.38;;;6.50;99.90;;;;;;6159442;23;20019;-86
2021/12/16 09:08:46;;;;;;;54.70;9.70;;;6.50;99.90;;;;;;6159354;23;20095;-86
2021/12/16 09:11:18;;;;;;;70.22;5.38;;;6.50;99.90;;;;;;6159081;23;20391;-86
2021/12/16 09:13:45;;;;;;;19.70;2.70;;;6.50;99.90;;;;;;6184290;22;20074;-86
2021/12/16 09:16:15;;;;;;;1.75;1.08;;;6.50;99.90;;;;;;6159289;22;20336;-86
2021/12/16 09:18:42;;;;;;;2.05;1.20;;;6.50;99.90;;;;;;6159533;23;20017;-86
2021/12/16 09:21:11;;;;;;;0.28;0.28;;;6.50;99.90;;;;;;6159580;23;20020;-86
2021/12/16 09:23:38;;;;;;;0.98;0.70;;;6.60;99.90;;;;;;6159312;23;20023;-86
2021/12/16 09:26:04;;;;;;;1.63;1.20;;;6.70;99.90;;;;;;6184426;22;20051;-86
2021/12/16 09:28:30;;;;;;;0.63;0.57;;;6.70;99.90;;;;;;6159628;23;20048;-86
2021/12/16 09:30:56;;;;;;;2.35;1.17;;;6.70;99.90;;;;;;6159447;23;20023;-86
2021/12/16 09:33:25;;;;;;;29.08;3.17;;;6.80;99.90;;;;;;6159710;22;20092;-86
2021/12/16 09:35:54;;;;;;;1.92;1.25;;;6.80;99.90;;;;;;6158771;23;20009;-86
2021/12/16 09:38:21;;;;;;;0.90;0.90;;;6.90;99.90;;;;;;6159696;22;20016;-86
2021/12/16 09:40:53;;;;;;;0.82;0.70;;;6.90;99.90;;;;;;6160371;22;20035;-86
2021/12/16 09:43:22;;;;;;;8.07;1.90;;;6.90;99.90;;;;;;6159645;23;20013;-86
2021/12/16 09:45:48;;;;;;;2.47;1.67;;;7.00;99.90;;;;;;6184186;22;20012;-86
2021/12/16 09:48:14;;;;;;;5.95;0.93;;;6.80;99.90;;;;;;6159858;22;20008;-87
2021/12/16 09:50:40;;;;;;;0.35;0.35;;;6.90;99.90;;;;;;6159288;23;20388;-86
2021/12/16 09:53:06;;;;;;;0.93;0.70;;;6.80;99.90;;;;;;6184389;22;20012;-86
2021/12/16 09:55:34;;;;;;;2.67;1.65;;;6.90;99.90;;;;;;6159670;22;20457;-86
2021/12/16 09:58:01;;;;;;;1.50;1.23;;;6.90;99.90;;;;;;6159024;23;20323;-86
2021/12/16 10:00:29;;;;;;;1.60;1.10;;;6.90;99.90;;;;;;6159702;23;20017;-86
2021/12/16 10:02:56;;;;;;;1.60;1.00;;;6.90;99.90;;;;;;6184382;23;20345;-85
2021/12/16 10:05:23;;;;;;;0.20;0.20;;;6.90;99.90;;;;;;6159623;22;20016;-86
2021/12/16 10:07:49;;;;;;;6.10;1.17;;;6.90;99.90;;;;;;6159338;23;20009;-86
2021/12/16 10:10:20;;;;;;;0.45;0.45;;;7.00;99.90;;;;;;6159638;22;20327;-86
2021/12/16 10:12:49;;;;;;;0.30;0.30;;;7.00;99.90;;;;;;6159973;22;20438;-86
2021/12/16 10:18:15;;;;;;;1.13;0.85;;;7.00;99.90;;;;;;6184022;22;20353;-86
2021/12/16 10:20:52;;;;;;;33.90;2.90;;;7.00;99.90;;;;;;6159371;23;20062;-86
2021/12/16 10:23:22;;;;;;;77.68;3.78;;;7.00;99.90;;;;;;6159610;22;20388;-86
2021/12/16 10:25:53;;;;;;;1.75;1.02;;;7.00;99.90;;;;;;6159390;23;20020;-86
2021/12/16 10:28:26;;;;;;;2.40;1.65;;;7.00;99.90;;;;;;6159720;22;20009;-86
2021/12/16 10:31:20;;;;;;;1.27;0.77;;;7.10;99.90;;;;;;6159292;22;20350;-86
2021/12/16 10:34:12;;;;;;;1.88;1.40;;;7.10;99.90;;;;;;6159622;23;20104;-86
2021/12/16 10:36:42;;;;;;;12.70;1.05;;;7.20;99.90;;;;;;6159177;22;20517;-86
2021/12/16 10:39:18;;;;;;;1.10;1.00;;;7.20;99.90;;;;;;6159380;23;20023;-86
2021/12/16 10:41:56;;;;;;;0.65;0.60;;;7.20;99.90;;;;;;6159431;23;20012;-86
2021/12/16 10:44:34;;;;;;;0.80;0.60;;;7.30;99.90;;;;;;6184029;22;20013;-86
2021/12/16 10:47:13;;;;;;;0.60;0.60;;;7.40;99.90;;;;;;6158757;22;20037;-87
2021/12/16 10:49:45;;;;;;;17.95;1.67;;;7.30;99.90;;;;;;6159378;23;20019;-86
2021/12/16 10:52:22;;;;;;;0.57;0.57;;;7.30;99.90;;;;;;6159551;22;20019;-86
2021/12/16 10:54:50;;;;;;;1.20;0.93;;;7.30;99.90;;;;;;6159540;23;20012;-86
2021/12/16 10:57:25;;;;;;;5.40;3.83;;;7.40;99.90;;;;;;6158509;22;20016;-86
2021/12/16 10:59:55;;;;;;;0.98;0.57;;;7.40;99.90;;;;;;6158021;23;20028;-86
2021/12/16 11:02:21;;;;;;;1.35;1.20;;;7.40;99.90;;;;;;6158564;23;20086;-86
2021/12/16 11:04:51;;;;;;;1.67;0.50;;;7.40;99.90;;;;;;6158957;23;20409;-86
2021/12/16 11:07:37;;;;;;;2.05;1.83;;;7.50;99.90;;;;;;6158733;23;20015;-86
2021/12/16 11:10:11;;;;;;;0.38;0.38;;;7.50;99.90;;;;;;6158472;22;20017;-86
2021/12/16 11:12:56;;;;;;;0.45;0.45;;;7.50;99.90;;;;;;6158948;22;20009;-86
2021/12/16 11:15:42;;;;;;;3.13;1.05;;;7.60;99.90;;;;;;6158669;23;20012;-86
2021/12/16 11:18:20;;;;;;;4.80;3.53;;;7.70;99.90;;;;;;6158896;22;20449;-86
2021/12/16 11:21:06;;;;;;;0.57;0.57;;;7.70;99.90;;;;;;6183549;22;20027;-86
2021/12/16 11:23:37;;;;;;;;;;;7.70;99.90;;;;;;6159322;22;20021;-87
2021/12/16 11:26:12;;;;;;;1.05;1.00;;;7.70;99.90;;;;;;6159361;22;19920;-86
2021/12/16 11:28:42;;;;;;;0.40;0.40;;;7.70;99.90;;;;;;6159173;23;20339;-86
2021/12/16 11:31:14;;;;;;;1.75;1.00;;;7.60;99.90;;;;;;6159600;22;20077;-86
2021/12/16 11:33:48;;;;;;;0.73;0.55;;;7.70;99.90;;;;;;6159498;22;20436;-86
2021/12/16 11:36:15;;;;;;;0.77;0.77;;;7.70;99.90;;;;;;6158759;23;20044;-86
2021/12/16 11:39:10;;;;;;;18.17;0.90;;;7.70;99.90;;;;;;6158778;23;20495;-86
2021/12/16 11:41:40;;;;;;;0.43;0.43;;;7.60;99.90;;;;;;6159096;22;20027;-86
2021/12/16 11:44:18;;;;;;;0.55;0.52;;;7.70;99.90;;;;;;6158547;23;20388;-86
2021/12/16 11:46:55;;;;;;;0.43;0.43;;;7.60;99.90;;;;;;6183305;23;20017;-86
2021/12/16 11:49:32;;;;;;;0.65;0.65;;;7.60;99.90;;;;;;6158912;23;20055;-86
2021/12/16 11:52:09;;;;;;;0.30;0.30;;;7.60;99.90;;;;;;6159301;22;20445;-86
2021/12/16 11:54:35;;;;;;;0.75;0.60;;;7.70;99.90;;;;;;6158513;23;20449;-86
2021/12/16 11:57:23;;;;;;;1.88;1.23;;;7.80;99.90;;;;;;6158434;23;20020;-86
2021/12/16 11:59:59;;;;;;;1.23;1.13;;;7.80;99.90;;;;;;6182810;23;20012;-86
2021/12/16 12:02:25;;;;;;;38.75;2.92;;;7.80;99.90;;;;;;6183045;23;20028;-86
2021/12/16 12:04:52;;;;;;;0.30;0.30;;;7.80;99.90;;;;;;6158635;23;20021;-86
2021/12/16 12:07:18;;;;;;;0.20;0.20;;;7.80;99.90;;;;;;6183289;22;20019;-86
2021/12/16 12:09:50;;;;;;;8.25;3.13;;;7.80;99.90;;;;;;6158579;22;20408;-86
2021/12/16 12:12:16;;;;;;;4.85;4.10;;;7.80;99.90;;;;;;6158405;23;20091;-86
2021/12/16 12:14:44;;;;;;;2.38;1.75;;;7.80;99.90;;;;;;6158246;23;20492;-86
2021/12/16 12:17:20;;;;;;;4.72;2.97;;;7.90;99.90;;;;;;6158280;23;20074;-86
2021/12/16 12:19:50;;;;;;;7.93;3.55;;;7.80;99.90;;;;;;6158826;23;20021;-86
2021/12/16 12:22:21;;;;;;;1.55;1.00;;;7.90;99.90;;;;;;6183561;22;20017;-86
2021/12/16 12:24:47;;;;;;;2.40;1.48;;;7.80;99.90;;;;;;6159235;22;20095;-86
2021/12/16 12:27:20;;;;;;;0.65;0.40;;;7.80;99.90;;;;;;6158358;23;20055;-86
2021/12/16 12:29:50;;;;;;;0.30;0.30;;;7.80;99.90;;;;;;6158296;23;20087;-86
2021/12/16 12:32:24;;;;;;;0.98;0.75;;;7.80;99.90;;;;;;6159324;22;20023;-86
2021/12/16 12:35:05;;;;;;;0.32;0.32;;;7.80;99.90;;;;;;6158284;23;20017;-86
2021/12/16 12:37:34;;;;;;;1.27;1.17;;;7.80;99.90;;;;;;6158128;23;20093;-86
2021/12/16 12:40:12;;;;;;;27.70;2.67;;;7.90;99.90;;;;;;6158356;23;20016;-86
2021/12/16 12:42:39;;;;;;;1.05;0.65;;;7.80;99.90;;;;;;6182890;22;20504;-86
2021/12/16 12:45:08;;;;;;;0.47;0.47;;;7.90;99.90;;;;;;6158373;22;20051;-86
2021/12/16 12:47:37;;;;;;;0.95;0.73;;;7.90;99.90;;;;;;6158044;23;20017;-86
2021/12/16 12:50:14;;;;;;;2.42;1.50;;;7.90;99.90;;;;;;6159462;22;20020;-86
2021/12/16 12:52:40;;;;;;;2.35;1.35;;;7.80;99.90;;;;;;6157620;22;20059;-86
2021/12/16 12:55:12;;;;;;;26.50;2.05;;;7.80;99.90;;;;;;6158262;23;20025;-86
2021/12/16 12:57:40;;;;;;;2.25;1.70;;;7.90;99.90;;;;;;6158124;23;20021;-86
2021/12/16 13:00:29;;;;;;;33.00;2.33;;;7.80;99.90;;;;;;6182917;22;20060;-86
2021/12/16 13:02:59;;;;;;;0.50;0.50;;;7.80;99.90;;;;;;6158338;23;20064;-86
2021/12/16 13:05:25;;;;;;;0.55;0.55;;;7.90;99.90;;;;;;6288465;22;20020;-86
2021/12/16 13:08:05;;;;;;;0.90;0.85;;;7.90;99.90;;;;;;6288298;22;20412;-86
2021/12/16 13:10:39;;;;;;;0.40;0.40;;;7.90;99.90;;;;;;6288406;22;20012;-86
2021/12/16 13:27:43;;;;;;;0.30;0.30;;;7.90;99.90;;;;;;6316386;22;20023;-86
2021/12/16 13:32:43;;;;;;;0.30;0.30;;;7.80;99.90;;;;;;6290146;22;20073;-86
2021/12/16 13:35:31;;;;;;;1.13;0.90;;;7.90;99.90;;;;;;6290201;22;20020;-86
2021/12/16 13:37:58;;;;;;;1.77;1.33;;;7.80;99.90;;;;;;6298361;22;20026;-86
2021/12/16 13:40:27;;;;;;;0.95;0.65;;;7.80;99.90;;;;;;6311628;22;20019;-86
2021/12/16 13:43:05;;;;;;;0.20;0.20;;;7.80;99.90;;;;;;6292705;22;20012;-86
2021/12/16 13:45:42;;;;;;;0.50;0.50;;;7.90;99.90;;;;;;6290864;22;20065;-87
2021/12/16 14:00:24;;;;;;;5.00;2.08;;;8.00;99.90;;;;;;6316544;22;20192;-88
2021/12/16 14:03:25;;;;;;;0.50;0.50;;;7.80;99.90;;;;;;6315989;22;20031;-88
2021/12/16 14:05:34;;;;;;;2.20;0.95;;;7.90;99.90;;;;;;6299857;22;20031;-88
2021/12/16 14:08:01;;;;;;;2.85;1.58;;;7.90;99.90;;;;;;6234342;22;20017;-89
2021/12/16 14:10:44;;;;;;;1.02;0.90;;;7.90;99.90;;;;;;6289901;22;20099;-88
2021/12/16 14:43:39;;;;;;;0.80;0.43;;;7.90;99.90;;;;;;6319840;22;20032;-94
2021/12/16 14:46:08;;;;;;;0.30;0.30;;;7.90;99.90;;;;;;6293274;22;20501;-93
2021/12/16 14:48:38;;;;;;;2.40;1.42;;;7.90;99.90;;;;;;6292251;22;20017;-94
2021/12/16 14:51:09;;;;;;;2.42;1.35;;;8.40;99.90;;;;;;6292664;22;20044;-93
2021/12/16 14:53:50;;;;;;;0.82;0.45;;;8.20;99.90;;;;;;6290964;22;20055;-94
2021/12/16 14:56:16;;;;;;;1.85;1.55;;;7.90;99.90;;;;;;6290682;22;20100;-93
2021/12/16 14:58:49;;;;;;;4.22;0.60;;;7.60;99.90;;;;;;6317473;22;20052;-94
2021/12/16 15:01:20;;;;;;;0.20;0.20;;;7.90;99.90;;;;;;6232407;22;20017;-93
2021/12/16 15:03:48;;;;;;;11.43;2.70;;;8.70;99.90;;;;;;6292019;22;20103;-94
2021/12/16 15:06:24;;;;;;;0.95;0.85;;;8.00;99.90;;;;;;6291861;22;20203;-92
2021/12/16 15:09:06;;;;;;;2.25;1.63;;;7.80;99.90;;;;;;6162320;22;20419;-93
2021/12/16 15:11:43;;;;;;;0.30;0.30;;;8.80;99.90;;;;;;6292762;22;20023;-93
2021/12/16 15:14:26;;;;;;;0.85;0.85;;;7.80;99.90;;;;;;6162137;23;20021;-94
2021/12/16 15:40:06;;;;;;;0.80;0.68;;;7.70;99.90;;;;;;6317279;22;20021;-94
2021/12/16 15:42:54;;;;;;;0.30;0.30;;;7.90;99.90;;;;;;6290924;22;20069;-93
2021/12/16 15:45:30;;;;;;;0.55;0.25;;;7.70;99.90;;;;;;6290069;22;20453;-92
2021/12/16 15:48:24;;;;;;;0.55;0.50;;;7.60;99.90;;;;;;6288598;22;20342;-87
2021/12/16 15:51:08;;;;;;;0.40;0.40;;;7.60;99.90;;;;;;6312633;22;20050;-87
2021/12/16 15:53:37;;;;;;;2.67;1.63;;;7.60;99.90;;;;;;6286750;22;20085;-87
2021/12/16 15:56:10;;;;;;;11.68;2.05;;;7.50;99.90;;;;;;6286603;22;20437;-87
2021/12/16 15:58:43;;;;;;;0.43;0.43;;;7.50;99.90;;;;;;6286453;22;20512;-87
2021/12/16 16:01:15;;;;;;;2.17;1.20;;;7.50;99.90;;;;;;6288876;22;20353;-86
2021/12/16 16:03:41;;;;;;;0.82;0.82;;;7.50;99.90;;;;;;6288602;22;20040;-87
2021/12/16 16:06:11;;;;;;;53.45;3.95;;;7.50;99.90;;;;;;6262565;22;20097;-87
2021/12/16 16:08:42;;;;;;;0.68;0.68;;;7.50;99.90;;;;;;6288272;22;20044;-86
2021/12/16 16:11:11;;;;;;;0.40;0.40;;;7.50;99.90;;;;;;6288334;22;20036;-86
2021/12/16 16:13:42;;;;;;;0.50;0.50;;;7.40;99.90;;;;;;6158667;22;20346;-86
2021/12/16 16:16:11;;;;;;;0.40;0.40;;;7.40;99.90;;;;;;6288594;22;20013;-86
2021/12/16 16:18:41;;;;;;;0.93;0.93;;;7.40;99.90;;;;;;6288768;22;20012;-86
2021/12/16 16:21:19;;;;;;;1.73;1.17;;;7.40;99.90;;;;;;6288487;22;20054;-87
2021/12/16 16:23:48;;;;;;;0.88;0.73;;;7.40;99.90;;;;;;6288901;22;20019;-86
2021/12/16 16:26:15;;;;;;;3.00;2.15;;;7.40;99.90;;;;;;6288239;22;20051;-87
2021/12/16 16:28:43;;;;;;;0.60;0.55;;;7.40;99.90;;;;;;6288264;22;20051;-87
2021/12/16 16:31:14;;;;;;;1.33;0.88;;;7.40;99.90;;;;;;6288807;22;20009;-87
2021/12/16 16:33:40;;;;;;;1.58;0.75;;;7.40;99.90;;;;;;6314379;22;20018;-86
2021/12/16 16:36:11;;;;;;;2.20;1.45;;;7.40;99.90;;;;;;6288271;22;20400;-87
2021/12/16 16:38:48;;;;;;;2.03;1.50;;;7.40;99.90;;;;;;6314494;22;20012;-86
2021/12/16 16:41:17;;;;;;;0.40;0.40;;;7.40;99.90;;;;;;6289469;22;20012;-87
2021/12/16 16:43:48;;;;;;;1.00;0.77;;;7.40;99.90;;;;;;6158419;22;20291;-86
2021/12/16 16:46:32;;;;;;;0.30;0.30;;;7.40;99.90;;;;;;6289618;22;20012;-86
2021/12/16 16:51:36;;;;;;;0.30;0.30;;;7.40;99.90;;;;;;6316056;22;20211;-86
2021/12/16 16:54:18;;;;;;;1.27;1.17;;;7.40;99.90;;;;;;6290917;22;20027;-86